createdAt,value
2022-07-28T00:00:18.706Z,0.00
2022-07-28T00:01:19.897Z,0.00
2022-07-28T00:02:19.647Z,0.00
2022-07-28T00:03:19.671Z,0.00
2022-07-28T00:04:18.741Z,0.00
2022-07-28T00:05:18.670Z,0.00
2022-07-28T00:06:21.584Z,0.00
2022-07-28T00:07:18.639Z,0.00
2022-07-28T00:08:18.633Z,0.00
2022-07-28T00:09:18.657Z,0.00
2022-07-28T00:10:18.599Z,0.00
2022-07-28T00:11:18.622Z,0.00
2022-07-28T00:12:25.101Z,0.00
2022-07-28T00:13:18.577Z,0.00
2022-07-28T00:14:18.579Z,0.00
2022-07-28T00:15:18.582Z,0.00
2022-07-28T00:16:19.155Z,0.00
2022-07-28T00:17:18.586Z,0.00
2022-07-28T00:18:18.541Z,0.00
2022-07-28T00:19:21.090Z,0.00
2022-07-28T00:20:18.547Z,0.00
2022-07-28T00:21:18.493Z,0.00
2022-07-28T00:22:18.477Z,0.00
2022-07-28T00:23:18.488Z,0.00
2022-07-28T00:24:19.087Z,0.00
2022-07-28T00:25:18.456Z,0.00
2022-07-28T00:26:18.453Z,0.00
2022-07-28T00:27:19.496Z,0.00
2022-07-28T00:28:18.409Z,0.00
2022-07-28T00:29:18.422Z,0.00
2022-07-28T00:30:18.409Z,0.00
2022-07-28T00:31:18.448Z,0.00
2022-07-28T00:32:18.370Z,0.00
2022-07-28T00:33:18.354Z,0.00
2022-07-28T00:34:18.344Z,0.00
2022-07-28T00:35:30.507Z,0.00
2022-07-28T00:36:24.588Z,0.00
2022-07-28T00:37:21.098Z,0.00
2022-07-28T00:38:19.088Z,0.00
2022-07-28T00:39:18.290Z,0.00
2022-07-28T00:40:18.325Z,0.00
2022-07-28T00:41:21.593Z,0.00
2022-07-28T00:42:19.097Z,0.00
2022-07-28T00:43:18.242Z,0.00
2022-07-28T00:44:21.109Z,0.00
2022-07-28T00:45:18.240Z,0.00
2022-07-28T00:46:18.281Z,0.00
2022-07-28T00:47:18.189Z,0.00
2022-07-28T00:48:18.213Z,0.00
2022-07-28T00:49:18.290Z,0.00
2022-07-28T00:50:18.169Z,0.00
2022-07-28T00:51:18.154Z,0.00
2022-07-28T00:52:18.163Z,0.00
2022-07-28T00:53:18.133Z,0.00
2022-07-28T00:54:25.098Z,0.00
2022-07-28T00:55:18.637Z,0.00
2022-07-28T00:56:18.106Z,0.00
2022-07-28T00:57:18.089Z,0.00
2022-07-28T00:58:18.102Z,0.00
2022-07-28T00:59:18.067Z,0.00
2022-07-28T01:00:18.063Z,0.00
2022-07-28T01:01:18.114Z,0.00
2022-07-28T01:02:18.172Z,0.00
2022-07-28T01:03:18.145Z,0.00
2022-07-28T01:04:18.239Z,0.00
2022-07-28T01:05:18.026Z,0.00
2022-07-28T01:06:19.020Z,0.00
2022-07-28T01:07:17.981Z,0.00
2022-07-28T01:08:17.975Z,0.00
2022-07-28T01:09:17.989Z,0.00
2022-07-28T01:10:17.959Z,0.00
2022-07-28T01:11:18.959Z,0.00
2022-07-28T01:12:17.942Z,0.00
2022-07-28T01:13:17.933Z,0.00
2022-07-28T01:14:18.986Z,0.00
2022-07-28T01:15:17.912Z,0.00
2022-07-28T01:16:18.315Z,0.00
2022-07-28T01:17:18.895Z,0.00
2022-07-28T01:18:17.879Z,0.00
2022-07-28T01:19:17.858Z,0.00
2022-07-28T01:20:18.126Z,0.00
2022-07-28T01:21:17.830Z,0.00
2022-07-28T01:22:17.817Z,0.00
2022-07-28T01:23:17.842Z,0.00
2022-07-28T01:24:18.060Z,0.00
2022-07-28T01:25:18.596Z,0.00
2022-07-28T01:26:17.778Z,0.00
2022-07-28T01:27:18.590Z,0.00
2022-07-28T01:28:17.866Z,0.00
2022-07-28T01:29:17.758Z,0.00
2022-07-28T01:30:18.607Z,0.00
2022-07-28T01:31:18.658Z,0.00
2022-07-28T01:32:17.730Z,0.00
2022-07-28T01:33:17.690Z,0.00
2022-07-28T01:34:17.826Z,0.00
2022-07-28T01:35:17.669Z,0.00
2022-07-28T01:36:17.673Z,0.00
2022-07-28T01:37:17.644Z,0.00
2022-07-28T01:38:17.660Z,0.00
2022-07-28T01:39:17.628Z,0.00
2022-07-28T01:40:17.622Z,0.00
2022-07-28T01:41:17.605Z,0.00
2022-07-28T01:42:18.111Z,0.00
2022-07-28T01:43:17.607Z,0.00
2022-07-28T01:44:17.831Z,0.00
2022-07-28T01:45:18.103Z,0.00
2022-07-28T01:46:17.682Z,0.00
2022-07-28T01:47:18.093Z,0.00
2022-07-28T01:48:17.538Z,0.00
2022-07-28T01:49:17.573Z,0.00
2022-07-28T01:50:17.513Z,0.00
2022-07-28T01:51:17.498Z,0.00
2022-07-28T01:52:17.495Z,0.00
2022-07-28T01:53:17.498Z,0.00
2022-07-28T01:54:17.910Z,0.00
2022-07-28T01:55:17.453Z,0.00
2022-07-28T01:56:17.443Z,0.00
2022-07-28T01:57:17.444Z,0.00
2022-07-28T01:58:17.420Z,0.00
2022-07-28T01:59:17.437Z,0.00
2022-07-28T02:00:17.421Z,0.00
2022-07-28T02:01:17.423Z,0.00
2022-07-28T02:02:17.376Z,0.00
2022-07-28T02:03:18.107Z,0.00
2022-07-28T02:04:17.541Z,0.00
2022-07-28T02:05:21.019Z,0.00
2022-07-28T02:06:17.366Z,0.00
2022-07-28T02:07:17.318Z,0.00
2022-07-28T02:08:17.318Z,0.00
2022-07-28T02:09:17.301Z,0.00
2022-07-28T02:10:17.317Z,0.00
2022-07-28T02:11:17.281Z,0.00
2022-07-28T02:12:17.269Z,0.00
2022-07-28T02:13:18.109Z,0.00
2022-07-28T02:14:17.817Z,0.00
2022-07-28T02:15:18.101Z,0.00
2022-07-28T02:16:18.181Z,0.00
2022-07-28T02:17:20.641Z,0.00
2022-07-28T02:18:17.212Z,0.00
2022-07-28T02:19:17.189Z,0.00
2022-07-28T02:20:17.191Z,0.00
2022-07-28T02:21:17.199Z,0.00
2022-07-28T02:22:17.635Z,0.00
2022-07-28T02:23:17.135Z,0.00
2022-07-28T02:24:17.602Z,0.00
2022-07-28T02:25:17.128Z,0.00
2022-07-28T02:26:17.916Z,0.00
2022-07-28T02:27:17.124Z,0.00
2022-07-28T02:28:17.100Z,0.00
2022-07-28T02:29:40.358Z,0.00
2022-07-28T02:30:18.075Z,0.00
2022-07-28T02:31:17.187Z,0.00
2022-07-28T02:32:26.902Z,0.00
2022-07-28T02:33:21.145Z,0.00
2022-07-28T02:34:18.475Z,0.00
2022-07-28T02:35:17.024Z,0.00
2022-07-28T02:36:17.016Z,0.00
2022-07-28T02:37:17.024Z,0.00
2022-07-28T02:38:17.137Z,0.00
2022-07-28T02:39:16.971Z,0.00
2022-07-28T02:40:17.604Z,0.00
2022-07-28T02:41:16.951Z,0.00
2022-07-28T02:42:16.944Z,0.00
2022-07-28T02:43:16.949Z,0.00
2022-07-28T02:44:17.273Z,0.00
2022-07-28T02:45:16.926Z,0.00
2022-07-28T02:46:17.051Z,0.00
2022-07-28T02:47:16.902Z,0.00
2022-07-28T02:48:16.887Z,0.00
2022-07-28T02:49:16.957Z,0.00
2022-07-28T02:50:16.854Z,0.00
2022-07-28T02:51:16.840Z,0.00
2022-07-28T02:52:16.877Z,0.00
2022-07-28T02:53:16.848Z,0.00
2022-07-28T02:54:17.294Z,0.00
2022-07-28T02:55:16.795Z,0.00
2022-07-28T02:56:16.789Z,0.00
2022-07-28T02:57:16.787Z,0.00
2022-07-28T02:58:16.775Z,0.00
2022-07-28T02:59:16.776Z,0.00
2022-07-28T03:00:16.754Z,0.00
2022-07-28T03:01:16.780Z,0.00
2022-07-28T03:02:16.732Z,0.00
2022-07-28T03:03:16.727Z,0.00
2022-07-28T03:04:22.158Z,0.00
2022-07-28T03:05:16.845Z,0.00
2022-07-28T03:06:16.681Z,0.00
2022-07-28T03:07:18.632Z,0.00
2022-07-28T03:08:16.665Z,0.00
2022-07-28T03:09:16.651Z,4.00
2022-07-28T03:10:16.639Z,4.00
2022-07-28T03:11:20.602Z,4.00
2022-07-28T03:12:16.642Z,0.00
2022-07-28T03:13:16.598Z,0.00
2022-07-28T03:14:16.871Z,4.00
2022-07-28T03:15:17.104Z,4.00
2022-07-28T03:16:17.154Z,4.00
2022-07-28T03:17:16.697Z,4.00
2022-07-28T03:18:16.628Z,4.00
2022-07-28T03:19:16.537Z,8.00
2022-07-28T03:20:17.583Z,4.00
2022-07-28T03:21:16.537Z,8.00
2022-07-28T03:22:16.632Z,8.00
2022-07-28T03:23:16.495Z,8.00
2022-07-28T03:24:16.820Z,8.00
2022-07-28T03:25:16.472Z,8.00
2022-07-28T03:26:17.115Z,12.00
2022-07-28T03:27:16.455Z,12.00
2022-07-28T03:28:16.631Z,16.00
2022-07-28T03:29:16.428Z,16.00
2022-07-28T03:30:17.461Z,20.00
2022-07-28T03:31:17.237Z,20.00
2022-07-28T03:32:16.395Z,24.00
2022-07-28T03:33:16.383Z,28.00
2022-07-28T03:34:16.892Z,28.00
2022-07-28T03:35:16.362Z,32.00
2022-07-28T03:36:16.342Z,36.00
2022-07-28T03:37:16.348Z,40.00
2022-07-28T03:38:17.950Z,48.00
2022-07-28T03:39:16.346Z,48.00
2022-07-28T03:40:16.298Z,52.00
2022-07-28T03:41:19.113Z,60.00
2022-07-28T03:42:31.110Z,68.00
2022-07-28T03:43:16.307Z,72.00
2022-07-28T03:44:17.255Z,80.00
2022-07-28T03:45:18.103Z,88.00
2022-07-28T03:46:16.264Z,92.00
2022-07-28T03:47:16.231Z,96.00
2022-07-28T03:48:16.238Z,104.00
2022-07-28T03:49:16.310Z,108.00
2022-07-28T03:50:16.196Z,116.00
2022-07-28T03:51:16.175Z,120.00
2022-07-28T03:52:16.180Z,124.00
2022-07-28T03:53:16.151Z,128.00
2022-07-28T03:54:16.713Z,136.00
2022-07-28T03:55:19.617Z,140.00
2022-07-28T03:56:16.131Z,144.00
2022-07-28T03:57:16.116Z,152.00
2022-07-28T03:58:16.118Z,156.00
2022-07-28T03:59:16.089Z,168.00
2022-07-28T04:00:16.111Z,172.00
2022-07-28T04:01:16.176Z,180.00
2022-07-28T04:02:16.695Z,188.00
2022-07-28T04:03:22.644Z,196.00
2022-07-28T04:04:17.553Z,204.00
2022-07-28T04:05:16.026Z,216.00
2022-07-28T04:06:18.102Z,228.00
2022-07-28T04:07:16.026Z,240.00
2022-07-28T04:08:15.995Z,248.00
2022-07-28T04:09:15.982Z,268.00
2022-07-28T04:10:16.995Z,284.00
2022-07-28T04:11:15.974Z,300.00
2022-07-28T04:12:15.953Z,316.00
2022-07-28T04:13:15.934Z,332.00
2022-07-28T04:14:19.086Z,352.00
2022-07-28T04:15:16.623Z,368.00
2022-07-28T04:16:16.040Z,392.00
2022-07-28T04:17:16.916Z,412.00
2022-07-28T04:18:15.868Z,436.00
2022-07-28T04:19:15.898Z,456.00
2022-07-28T04:20:15.857Z,476.00
2022-07-28T04:21:15.853Z,504.00
2022-07-28T04:22:15.848Z,528.00
2022-07-28T04:23:15.835Z,556.00
2022-07-28T04:24:16.042Z,584.00
2022-07-28T04:25:15.831Z,612.00
2022-07-28T04:26:15.817Z,640.00
2022-07-28T04:27:22.608Z,668.00
2022-07-28T04:28:15.827Z,692.00
2022-07-28T04:29:15.798Z,712.00
2022-07-28T04:30:16.745Z,728.00
2022-07-28T04:31:18.759Z,744.00
2022-07-28T04:32:15.728Z,764.00
2022-07-28T04:33:15.714Z,792.00
2022-07-28T04:34:16.724Z,820.00
2022-07-28T04:35:17.673Z,844.00
2022-07-28T04:36:15.690Z,868.00
2022-07-28T04:37:15.662Z,880.00
2022-07-28T04:38:15.660Z,884.00
2022-07-28T04:39:18.617Z,892.00
2022-07-28T04:40:15.661Z,900.00
2022-07-28T04:41:15.625Z,912.00
2022-07-28T04:42:15.620Z,928.00
2022-07-28T04:43:15.604Z,944.00
2022-07-28T04:44:15.956Z,964.00
2022-07-28T04:45:15.576Z,984.00
2022-07-28T04:46:15.663Z,1004.00
2022-07-28T04:47:15.560Z,1028.00
2022-07-28T04:48:22.104Z,1048.00
2022-07-28T04:49:15.628Z,1064.00
2022-07-28T04:50:15.518Z,1076.00
2022-07-28T04:51:15.534Z,1088.00
2022-07-28T04:52:15.516Z,1100.00
2022-07-28T04:53:16.113Z,1116.00
2022-07-28T04:54:16.021Z,1124.00
2022-07-28T04:55:15.461Z,1136.00
2022-07-28T04:56:15.489Z,1152.00
2022-07-28T04:57:15.459Z,1168.00
2022-07-28T04:58:16.119Z,1184.00
2022-07-28T04:59:15.417Z,1200.00
2022-07-28T05:00:15.415Z,1208.00
2022-07-28T05:01:15.482Z,1220.00
2022-07-28T05:02:15.408Z,1228.00
2022-07-28T05:03:15.411Z,1236.00
2022-07-28T05:04:15.651Z,1244.00
2022-07-28T05:05:15.399Z,1252.00
2022-07-28T05:06:15.366Z,1260.00
2022-07-28T05:07:18.120Z,1252.00
2022-07-28T05:08:15.345Z,1220.00
2022-07-28T05:09:16.343Z,1224.00
2022-07-28T05:10:15.298Z,1228.00
2022-07-28T05:11:17.169Z,1244.00
2022-07-28T05:12:15.280Z,1248.00
2022-07-28T05:13:15.272Z,1252.00
2022-07-28T05:14:15.963Z,1284.00
2022-07-28T05:15:15.240Z,1276.00
2022-07-28T05:16:15.265Z,1300.00
2022-07-28T05:17:15.227Z,1356.00
2022-07-28T05:18:18.116Z,1364.00
2022-07-28T05:19:16.179Z,1320.00
2022-07-28T05:20:16.119Z,1324.00
2022-07-28T05:21:22.392Z,1360.00
2022-07-28T05:22:15.171Z,1388.00
2022-07-28T05:23:15.157Z,1372.00
2022-07-28T05:24:15.541Z,1444.00
2022-07-28T05:25:15.163Z,1436.00
2022-07-28T05:26:15.140Z,1440.00
2022-07-28T05:27:15.130Z,1448.00
2022-07-28T05:28:15.110Z,1476.00
2022-07-28T05:29:15.622Z,1520.00
2022-07-28T05:30:15.144Z,1572.00
2022-07-28T05:31:15.162Z,1636.00
2022-07-28T05:32:17.542Z,1688.00
2022-07-28T05:33:15.613Z,1740.00
2022-07-28T05:34:15.493Z,1764.00
2022-07-28T05:35:15.025Z,1808.00
2022-07-28T05:36:15.031Z,1876.00
2022-07-28T05:37:15.041Z,1940.00
2022-07-28T05:38:14.999Z,1976.00
2022-07-28T05:39:17.723Z,2016.00
2022-07-28T05:40:14.989Z,2040.00
2022-07-28T05:41:15.001Z,2072.00
2022-07-28T05:42:14.974Z,2060.00
2022-07-28T05:43:35.952Z,2016.00
2022-07-28T05:44:15.289Z,1968.00
2022-07-28T05:45:17.022Z,1940.00
2022-07-28T05:46:14.970Z,1900.00
2022-07-28T05:47:14.912Z,1872.00
2022-07-28T05:48:14.882Z,1860.00
2022-07-28T05:49:14.967Z,1868.00
2022-07-28T05:50:15.617Z,1892.00
2022-07-28T05:51:14.859Z,1900.00
2022-07-28T05:52:36.616Z,1912.00
2022-07-28T05:53:14.839Z,1936.00
2022-07-28T05:54:15.114Z,1944.00
2022-07-28T05:55:14.828Z,1956.00
2022-07-28T05:56:29.620Z,1976.00
2022-07-28T05:57:15.254Z,2000.00
2022-07-28T05:58:14.783Z,2048.00
2022-07-28T05:59:14.778Z,2068.00
2022-07-28T06:00:15.169Z,2096.00
2022-07-28T06:01:14.877Z,2096.00
2022-07-28T06:02:15.646Z,2092.00
2022-07-28T06:03:41.517Z,2100.00
2022-07-28T06:04:29.255Z,2116.00
2022-07-28T06:05:15.720Z,2120.00
2022-07-28T06:06:17.040Z,2176.00
2022-07-28T06:07:14.680Z,2216.00
2022-07-28T06:08:14.679Z,2288.00
2022-07-28T06:09:14.652Z,2296.00
2022-07-28T06:10:14.666Z,2332.00
2022-07-28T06:11:22.099Z,2424.00
2022-07-28T06:12:15.642Z,2488.00
2022-07-28T06:13:14.612Z,2564.00
2022-07-28T06:14:15.138Z,2624.00
2022-07-28T06:15:14.600Z,2656.00
2022-07-28T06:16:14.701Z,2648.00
2022-07-28T06:17:14.577Z,2696.00
2022-07-28T06:18:14.574Z,2760.00
2022-07-28T06:19:14.549Z,2792.00
2022-07-28T06:20:14.535Z,2784.00
2022-07-28T06:21:14.533Z,2812.00
2022-07-28T06:22:14.644Z,2808.00
2022-07-28T06:23:15.132Z,2800.00
2022-07-28T06:24:15.008Z,2780.00
2022-07-28T06:25:17.125Z,2700.00
2022-07-28T06:26:15.120Z,2760.00
2022-07-28T06:27:14.502Z,2788.00
2022-07-28T06:28:15.119Z,2812.00
2022-07-28T06:29:17.123Z,2804.00
2022-07-28T06:30:14.425Z,2800.00
2022-07-28T06:31:15.512Z,2836.00
2022-07-28T06:32:14.650Z,2860.00
2022-07-28T06:33:17.267Z,2856.00
2022-07-28T06:34:14.863Z,2828.00
2022-07-28T06:35:17.112Z,2768.00
2022-07-28T06:36:14.653Z,2704.00
2022-07-28T06:37:14.372Z,2664.00
2022-07-28T06:38:14.344Z,2620.00
2022-07-28T06:39:14.332Z,2572.00
2022-07-28T06:40:14.329Z,2512.00
2022-07-28T06:41:14.313Z,2516.00
2022-07-28T06:42:14.325Z,2512.00
2022-07-28T06:43:14.292Z,2512.00
2022-07-28T06:44:14.816Z,2468.00
2022-07-28T06:45:19.575Z,2420.00
2022-07-28T06:46:16.234Z,2364.00
2022-07-28T06:47:14.322Z,2300.00
2022-07-28T06:48:14.259Z,2236.00
2022-07-28T06:49:14.618Z,2164.00
2022-07-28T06:50:25.324Z,2132.00
2022-07-28T06:51:16.127Z,2076.00
2022-07-28T06:52:14.209Z,2064.00
2022-07-28T06:53:14.196Z,2036.00
2022-07-28T06:54:14.896Z,2020.00
2022-07-28T06:55:14.159Z,2020.00
2022-07-28T06:56:17.127Z,2036.00
2022-07-28T06:57:15.118Z,2068.00
2022-07-28T06:58:14.151Z,2112.00
2022-07-28T06:59:14.470Z,2128.00
2022-07-28T07:00:14.152Z,2188.00
2022-07-28T07:01:14.768Z,2260.00
2022-07-28T07:02:14.632Z,2320.00
2022-07-28T07:03:14.097Z,2360.00
2022-07-28T07:04:14.358Z,2396.00
2022-07-28T07:05:14.185Z,2420.00
2022-07-28T07:06:14.041Z,2432.00
2022-07-28T07:07:17.018Z,2448.00
2022-07-28T07:08:14.022Z,2396.00
2022-07-28T07:09:14.025Z,2336.00
2022-07-28T07:10:13.997Z,2320.00
2022-07-28T07:11:13.998Z,2292.00
2022-07-28T07:12:13.979Z,2244.00
2022-07-28T07:13:14.113Z,2140.00
2022-07-28T07:14:20.629Z,2148.00
2022-07-28T07:15:14.175Z,2124.00
2022-07-28T07:16:13.979Z,2108.00
2022-07-28T07:17:13.930Z,2128.00
2022-07-28T07:18:14.164Z,2152.00
2022-07-28T07:19:15.976Z,2168.00
2022-07-28T07:20:13.909Z,2208.00
2022-07-28T07:21:13.884Z,2240.00
2022-07-28T07:22:13.889Z,2288.00
2022-07-28T07:23:13.862Z,2332.00
2022-07-28T07:24:14.214Z,2356.00
2022-07-28T07:25:14.164Z,2356.00
2022-07-28T07:26:14.644Z,2376.00
2022-07-28T07:27:14.630Z,2348.00
2022-07-28T07:28:13.796Z,2324.00
2022-07-28T07:29:14.618Z,2292.00
2022-07-28T07:30:16.622Z,2324.00
2022-07-28T07:31:13.857Z,2360.00
2022-07-28T07:32:13.755Z,2392.00
2022-07-28T07:33:13.749Z,2404.00
2022-07-28T07:34:15.008Z,2424.00
2022-07-28T07:35:13.725Z,2432.00
2022-07-28T07:36:14.632Z,2436.00
2022-07-28T07:37:13.823Z,2424.00
2022-07-28T07:38:13.714Z,2428.00
2022-07-28T07:39:20.623Z,2436.00
2022-07-28T07:40:13.666Z,2444.00
2022-07-28T07:41:13.658Z,2448.00
2022-07-28T07:42:28.642Z,2440.00
2022-07-28T07:43:13.651Z,2404.00
2022-07-28T07:44:14.004Z,2388.00
2022-07-28T07:45:13.606Z,2384.00
2022-07-28T07:46:14.206Z,2356.00
2022-07-28T07:47:13.603Z,2336.00
2022-07-28T07:48:13.686Z,2284.00
2022-07-28T07:49:45.083Z,2200.00
2022-07-28T07:50:14.554Z,2136.00
2022-07-28T07:51:15.670Z,2072.00
2022-07-28T07:52:14.144Z,2052.00
2022-07-28T07:53:14.261Z,2084.00
2022-07-28T07:54:16.519Z,2116.00
2022-07-28T07:55:14.131Z,2096.00
2022-07-28T07:56:14.137Z,2004.00
2022-07-28T07:57:16.130Z,1988.00
2022-07-28T07:58:14.159Z,2028.00
2022-07-28T07:59:14.168Z,1956.00
2022-07-28T08:00:28.790Z,2048.00
2022-07-28T08:01:14.468Z,2044.00
2022-07-28T08:02:16.241Z,2128.00
2022-07-28T08:03:16.134Z,2168.00
2022-07-28T08:04:15.578Z,2292.00
2022-07-28T08:05:16.140Z,2212.00
2022-07-28T08:06:16.145Z,2300.00
2022-07-28T08:07:16.133Z,2428.00
2022-07-28T08:08:16.137Z,2360.00
2022-07-28T08:09:16.153Z,2472.00
2022-07-28T08:10:15.396Z,2408.00
2022-07-28T08:11:18.665Z,2464.00
2022-07-28T08:12:15.478Z,2432.00
2022-07-28T08:13:16.136Z,2516.00
2022-07-28T08:14:16.740Z,2440.00
2022-07-28T08:15:16.150Z,2412.00
2022-07-28T08:16:16.276Z,2392.00
2022-07-28T08:17:16.334Z,2408.00
2022-07-28T08:18:13.251Z,2428.00
2022-07-28T08:19:13.254Z,2448.00
2022-07-28T08:20:13.225Z,2392.00
2022-07-28T08:21:13.263Z,2456.00
2022-07-28T08:22:13.209Z,2324.00
2022-07-28T08:23:13.210Z,2432.00
2022-07-28T08:24:13.508Z,2508.00
2022-07-28T08:25:17.134Z,2460.00
2022-07-28T08:26:13.156Z,2496.00
2022-07-28T08:27:16.134Z,2536.00
2022-07-28T08:28:13.162Z,2564.00
2022-07-28T08:29:13.121Z,2592.00
2022-07-28T08:30:13.122Z,2604.00
2022-07-28T08:31:16.756Z,2620.00
2022-07-28T08:32:13.644Z,2584.00
2022-07-28T08:33:13.105Z,2592.00
2022-07-28T08:34:26.358Z,2564.00
2022-07-28T08:35:35.871Z,2504.00
2022-07-28T08:36:13.061Z,2420.00
2022-07-28T08:37:19.635Z,2432.00
2022-07-28T08:38:13.046Z,2472.00
2022-07-28T08:39:13.027Z,2548.00
2022-07-28T08:40:13.014Z,2524.00
2022-07-28T08:41:12.994Z,2504.00
2022-07-28T08:42:13.000Z,2476.00
2022-07-28T08:43:12.974Z,2440.00
2022-07-28T08:44:13.232Z,2412.00
2022-07-28T08:45:12.945Z,2380.00
2022-07-28T08:46:13.293Z,2280.00
2022-07-28T08:47:12.930Z,2324.00
2022-07-28T08:48:12.920Z,2284.00
2022-07-28T08:49:14.916Z,2248.00
2022-07-28T08:50:12.881Z,2204.00
2022-07-28T08:51:12.922Z,2164.00
2022-07-28T08:52:13.646Z,2120.00
2022-07-28T08:53:12.864Z,2080.00
2022-07-28T08:54:13.191Z,2052.00
2022-07-28T08:55:17.621Z,1968.00
2022-07-28T08:56:13.853Z,1996.00
2022-07-28T08:57:12.823Z,1996.00
2022-07-28T08:58:12.815Z,1988.00
2022-07-28T08:59:12.800Z,1984.00
2022-07-28T09:00:12.788Z,1968.00
2022-07-28T09:01:12.783Z,1952.00
2022-07-28T09:02:12.870Z,1960.00
2022-07-28T09:03:12.846Z,1940.00
2022-07-28T09:04:13.076Z,1912.00
2022-07-28T09:05:12.745Z,1872.00
2022-07-28T09:06:12.719Z,1864.00
2022-07-28T09:07:12.740Z,1876.00
2022-07-28T09:08:12.704Z,1888.00
2022-07-28T09:09:12.693Z,1872.00
2022-07-28T09:10:12.676Z,1880.00
2022-07-28T09:11:12.669Z,1868.00
2022-07-28T09:12:12.686Z,1888.00
2022-07-28T09:13:13.320Z,1864.00
2022-07-28T09:14:12.975Z,1888.00
2022-07-28T09:15:12.622Z,1892.00
2022-07-28T09:16:12.656Z,1896.00
2022-07-28T09:17:12.596Z,1888.00
2022-07-28T09:18:12.624Z,1892.00
2022-07-28T09:19:12.586Z,1896.00
2022-07-28T09:20:12.567Z,1900.00
2022-07-28T09:21:12.588Z,1912.00
2022-07-28T09:22:12.546Z,1944.00
2022-07-28T09:23:41.854Z,1992.00
2022-07-28T09:24:13.813Z,2072.00
2022-07-28T09:25:13.140Z,2164.00
2022-07-28T09:26:12.954Z,2268.00
2022-07-28T09:27:12.519Z,2380.00
2022-07-28T09:28:12.485Z,2484.00
2022-07-28T09:29:13.149Z,2564.00
2022-07-28T09:30:12.462Z,2604.00
2022-07-28T09:31:12.722Z,2760.00
2022-07-28T09:32:12.435Z,2832.00
2022-07-28T09:33:12.426Z,2908.00
2022-07-28T09:34:13.718Z,2972.00
2022-07-28T09:35:12.404Z,2996.00
2022-07-28T09:36:12.397Z,3052.00
2022-07-28T09:37:12.671Z,3088.00
2022-07-28T09:38:12.372Z,3148.00
2022-07-28T09:39:12.365Z,3180.00
2022-07-28T09:40:12.345Z,3224.00
2022-07-28T09:41:12.347Z,3240.00
2022-07-28T09:42:12.323Z,3256.00
2022-07-28T09:43:12.389Z,3260.00
2022-07-28T09:44:12.761Z,3256.00
2022-07-28T09:45:23.077Z,3252.00
2022-07-28T09:46:13.477Z,3308.00
2022-07-28T09:47:19.422Z,3308.00
2022-07-28T09:48:12.621Z,3324.00
2022-07-28T09:49:12.771Z,3320.00
2022-07-28T09:50:15.141Z,3312.00
2022-07-28T09:51:13.153Z,3304.00
2022-07-28T09:52:12.254Z,3296.00
2022-07-28T09:53:12.206Z,3288.00
2022-07-28T09:54:12.722Z,3276.00
2022-07-28T09:55:12.188Z,3200.00
2022-07-28T09:56:13.187Z,3184.00
2022-07-28T09:57:12.162Z,3240.00
2022-07-28T09:58:12.179Z,3232.00
2022-07-28T09:59:12.158Z,3228.00
2022-07-28T10:00:12.128Z,3208.00
2022-07-28T10:01:12.323Z,3204.00
2022-07-28T10:02:12.265Z,3208.00
2022-07-28T10:03:12.182Z,3196.00
2022-07-28T10:04:12.125Z,3188.00
2022-07-28T10:05:12.082Z,3176.00
2022-07-28T10:06:12.068Z,3164.00
2022-07-28T10:07:12.055Z,3160.00
2022-07-28T10:08:12.049Z,3156.00
2022-07-28T10:09:12.067Z,3140.00
2022-07-28T10:10:12.043Z,3120.00
2022-07-28T10:11:12.019Z,3100.00
2022-07-28T10:12:12.009Z,3076.00
2022-07-28T10:13:11.997Z,3048.00
2022-07-28T10:14:12.267Z,3040.00
2022-07-28T10:15:12.042Z,3016.00
2022-07-28T10:16:12.047Z,3000.00
2022-07-28T10:17:11.955Z,2980.00
2022-07-28T10:18:33.663Z,2968.00
2022-07-28T10:19:11.923Z,2968.00
2022-07-28T10:20:11.915Z,2956.00
2022-07-28T10:21:11.923Z,2880.00
2022-07-28T10:22:11.909Z,2888.00
2022-07-28T10:23:11.876Z,2920.00
2022-07-28T10:24:12.377Z,2900.00
2022-07-28T10:25:11.855Z,2888.00
2022-07-28T10:26:13.206Z,2880.00
2022-07-28T10:27:12.658Z,2876.00
2022-07-28T10:28:11.856Z,2872.00
2022-07-28T10:29:14.650Z,2864.00
2022-07-28T10:30:11.803Z,2860.00
2022-07-28T10:31:11.895Z,2856.00
2022-07-28T10:32:12.652Z,2828.00
2022-07-28T10:33:11.764Z,2808.00
2022-07-28T10:34:16.018Z,2792.00
2022-07-28T10:35:11.746Z,2788.00
2022-07-28T10:36:12.670Z,2780.00
2022-07-28T10:37:11.720Z,2772.00
2022-07-28T10:38:11.753Z,2764.00
2022-07-28T10:39:12.658Z,2744.00
2022-07-28T10:40:11.752Z,2728.00
2022-07-28T10:41:11.681Z,2720.00
2022-07-28T10:42:14.653Z,2708.00
2022-07-28T10:43:27.659Z,2696.00
2022-07-28T10:44:11.960Z,2688.00
2022-07-28T10:45:12.210Z,2688.00
2022-07-28T10:46:15.881Z,2660.00
2022-07-28T10:47:18.484Z,2644.00
2022-07-28T10:48:13.158Z,2616.00
2022-07-28T10:49:12.241Z,2608.00
2022-07-28T10:50:12.162Z,2584.00
2022-07-28T10:51:11.582Z,2584.00
2022-07-28T10:52:19.906Z,2588.00
2022-07-28T10:53:12.545Z,2564.00
2022-07-28T10:54:11.672Z,2540.00
2022-07-28T10:55:12.532Z,2516.00
2022-07-28T10:56:12.158Z,2504.00
2022-07-28T10:57:11.515Z,2480.00
2022-07-28T10:58:12.389Z,2460.00
2022-07-28T10:59:11.487Z,2448.00
2022-07-28T11:00:13.632Z,2436.00
2022-07-28T11:01:26.708Z,2412.00
2022-07-28T11:02:12.576Z,2412.00
2022-07-28T11:03:13.540Z,2444.00
2022-07-28T11:04:11.600Z,2516.00
2022-07-28T11:05:11.426Z,2640.00
2022-07-28T11:06:11.697Z,2624.00
2022-07-28T11:07:12.166Z,2580.00
2022-07-28T11:08:11.388Z,2600.00
2022-07-28T11:09:11.390Z,2528.00
2022-07-28T11:10:11.384Z,2448.00
2022-07-28T11:11:13.393Z,2472.00
2022-07-28T11:12:11.380Z,2484.00
2022-07-28T11:13:14.391Z,2492.00
2022-07-28T11:14:11.722Z,2476.00
2022-07-28T11:15:18.544Z,2424.00
2022-07-28T11:16:12.325Z,2424.00
2022-07-28T11:17:12.216Z,2360.00
2022-07-28T11:18:11.280Z,2208.00
2022-07-28T11:19:40.532Z,2212.00
2022-07-28T11:20:26.124Z,2180.00
2022-07-28T11:21:16.507Z,2532.00
2022-07-28T11:22:11.262Z,2676.00
2022-07-28T11:23:12.156Z,2800.00
2022-07-28T11:24:12.931Z,2824.00
2022-07-28T11:25:20.270Z,2920.00
2022-07-28T11:26:12.212Z,2984.00
2022-07-28T11:27:12.174Z,2944.00
2022-07-28T11:28:11.186Z,2956.00
2022-07-28T11:29:11.168Z,2980.00
2022-07-28T11:30:11.674Z,3020.00
2022-07-28T11:31:11.712Z,3056.00
2022-07-28T11:32:11.126Z,3084.00
2022-07-28T11:33:11.146Z,3104.00
2022-07-28T11:34:11.319Z,3172.00
2022-07-28T11:35:11.113Z,3160.00
2022-07-28T11:36:11.105Z,3192.00
2022-07-28T11:37:15.060Z,3224.00
2022-07-28T11:38:11.112Z,3284.00
2022-07-28T11:39:11.053Z,3336.00
2022-07-28T11:40:11.051Z,3412.00
2022-07-28T11:41:11.197Z,3352.00
2022-07-28T11:42:12.097Z,3380.00
2022-07-28T11:43:11.016Z,3460.00
2022-07-28T11:44:11.365Z,3524.00
2022-07-28T11:45:13.678Z,3564.00
2022-07-28T11:46:11.924Z,3588.00
2022-07-28T11:47:11.988Z,3676.00
2022-07-28T11:48:10.952Z,3716.00
2022-07-28T11:49:14.903Z,3704.00
2022-07-28T11:50:11.989Z,3700.00
2022-07-28T11:51:13.666Z,3708.00
2022-07-28T11:52:10.961Z,3740.00
2022-07-28T11:53:10.893Z,3800.00
2022-07-28T11:54:10.975Z,3820.00
2022-07-28T11:55:10.881Z,3836.00
2022-07-28T11:56:10.922Z,3856.00
2022-07-28T11:57:13.832Z,3780.00
2022-07-28T11:58:11.675Z,3968.00
2022-07-28T11:59:10.835Z,4104.00
2022-07-28T12:00:10.837Z,4316.00
2022-07-28T12:01:13.346Z,4352.00
2022-07-28T12:02:10.892Z,4272.00
2022-07-28T12:03:11.684Z,4212.00
2022-07-28T12:04:10.787Z,4376.00
2022-07-28T12:05:10.931Z,4540.00
2022-07-28T12:06:10.763Z,4468.00
2022-07-28T12:07:10.755Z,4380.00
2022-07-28T12:08:10.768Z,4372.00
2022-07-28T12:09:10.726Z,4508.00
2022-07-28T12:10:10.727Z,4568.00
2022-07-28T12:11:10.704Z,4548.00
2022-07-28T12:12:10.728Z,4632.00
2022-07-28T12:13:10.687Z,4464.00
2022-07-28T12:14:10.715Z,4856.00
2022-07-28T12:15:10.664Z,4796.00
2022-07-28T12:16:10.710Z,4860.00
2022-07-28T12:17:10.720Z,5064.00
2022-07-28T12:18:10.628Z,5120.00
2022-07-28T12:19:10.632Z,5092.00
2022-07-28T12:20:14.027Z,5260.00
2022-07-28T12:21:10.602Z,5308.00
2022-07-28T12:22:12.583Z,5368.00
2022-07-28T12:23:11.583Z,5436.00
2022-07-28T12:24:10.553Z,5672.00
2022-07-28T12:25:13.984Z,5496.00
2022-07-28T12:26:10.552Z,5384.00
2022-07-28T12:27:10.532Z,5416.00